Time;durP1;ratioP1;P1;durP2;ratioP2;P2;SDS_P1;SDS_P2;PMS_P1;PMS_P2;Temp;Humidity;BMP_temperature;BMP_pressure;BME280_temperature;BME280_humidity;BME280_pressure;Samples;Min_cycle;Max_cycle;Signal;HPM_P1;HPM_P2
2021/08/11 00:01:01;;;;;;;3.53;3.07;;;;;;;13.77;100.00;101204.06;5071159;28;20249;-71
2021/08/11 00:03:26;;;;;;;4.30;3.10;;;;;;;13.76;100.00;101213.44;5070876;28;20630;-71
2021/08/11 00:05:52;;;;;;;3.57;3.27;;;;;;;13.74;100.00;101210.97;5071169;28;20463;-71
2021/08/11 00:08:17;;;;;;;2.90;2.70;;;;;;;13.75;100.00;101211.81;5071329;28;20175;-71
2021/08/11 00:10:42;;;;;;;3.47;2.83;;;;;;;13.74;100.00;101240.38;5071051;28;20653;-71
2021/08/11 00:13:08;;;;;;;3.17;2.87;;;;;;;13.69;100.00;101156.19;5070763;28;20240;-71
2021/08/11 00:15:33;;;;;;;3.43;3.13;;;;;;;13.65;100.00;101185.41;5070906;28;20174;-71
2021/08/11 00:17:59;;;;;;;2.63;2.43;;;;;;;13.71;100.00;101200.63;5070486;28;20174;-71
2021/08/11 00:20:24;;;;;;;2.40;2.13;;;;;;;13.66;100.00;101223.53;5071001;28;20183;-71
2021/08/11 00:22:54;;;;;;;2.50;2.17;;;;;;;13.65;100.00;101191.72;5070572;28;20202;-71
2021/08/11 00:25:19;;;;;;;2.97;2.67;;;;;;;13.67;100.00;101174.91;5070795;28;20710;-71
2021/08/11 00:27:44;;;;;;;4.60;2.63;;;;;;;13.63;100.00;101202.22;5070857;28;20206;-72
2021/08/11 00:30:10;;;;;;;2.57;2.37;;;;;;;13.64;100.00;101217.56;5070663;28;20206;-71
2021/08/11 00:32:36;;;;;;;2.57;2.37;;;;;;;13.62;100.00;101224.50;5070286;28;20250;-72
2021/08/11 00:35:02;;;;;;;2.23;2.07;;;;;;;13.60;100.00;101244.03;5070856;28;20265;-70
2021/08/11 00:37:27;;;;;;;2.50;2.30;;;;;;;13.59;100.00;101278.06;5070690;28;20590;-71
2021/08/11 00:39:54;;;;;;;2.40;2.13;;;;;;;13.61;100.00;101267.63;5070544;28;20258;-71
2021/08/11 00:42:20;;;;;;;2.47;2.27;;;;;;;13.59;100.00;101260.78;5070594;28;20162;-71
2021/08/11 00:44:45;;;;;;;3.00;2.70;;;;;;;13.55;100.00;101266.09;5070621;28;20596;-74
2021/08/11 00:47:10;;;;;;;2.07;1.90;;;;;;;13.58;100.00;101253.66;5070617;28;20261;-74
2021/08/11 00:49:36;;;;;;;3.10;2.83;;;;;;;13.59;100.00;101275.31;5070495;28;20240;-74
2021/08/11 00:52:01;;;;;;;2.40;2.20;;;;;;;13.56;100.00;101292.44;5070591;28;20177;-71
2021/08/11 00:54:27;;;;;;;10.57;3.00;;;;;;;13.57;100.00;101313.25;5070571;28;20744;-71
2021/08/11 00:56:53;;;;;;;4.00;3.00;;;;;;;13.57;100.00;101334.41;5070201;28;20182;-71
2021/08/11 00:59:20;;;;;;;2.57;2.37;;;;;;;13.59;100.00;101349.47;5070422;28;20257;-71
2021/08/11 01:01:50;;;;;;;2.53;2.30;;;;;;;13.57;100.00;101373.66;5070045;28;20181;-71
2021/08/11 01:04:20;;;;;;;1.90;1.80;;;;;;;13.60;100.00;101389.56;5070285;28;20186;-71
2021/08/11 01:06:45;;;;;;;2.50;2.30;;;;;;;13.58;100.00;101399.19;5070037;28;20170;-71
2021/08/11 01:09:15;;;;;;;2.63;2.43;;;;;;;13.59;100.00;101407.13;5070298;28;20209;-71
2021/08/11 01:11:44;;;;;;;2.67;1.83;;;;;;;13.59;100.00;101415.34;5070228;28;20178;-70
2021/08/11 01:14:10;;;;;;;3.50;3.20;;;;;;;13.57;100.00;101447.00;5070572;28;20174;-71
2021/08/11 01:16:35;;;;;;;2.80;2.60;;;;;;;13.54;100.00;101401.75;5070429;28;20178;-72
2021/08/11 01:19:01;;;;;;;2.83;2.57;;;;;;;13.52;100.00;101430.63;5069826;28;20178;-71
2021/08/11 01:21:43;;;;;;;3.17;2.87;;;;;;;13.55;100.00;101458.28;5070174;28;20178;-72
2021/08/11 01:24:20;;;;;;;3.10;2.73;;;;;;;13.53;100.00;101471.50;5070770;28;20179;-71
2021/08/11 01:27:06;;;;;;;3.13;2.87;;;;;;;13.48;100.00;101479.88;5070601;28;20171;-71
2021/08/11 01:29:56;;;;;;;3.03;2.83;;;;;;;13.45;100.00;101513.41;5070424;28;20275;-71
2021/08/11 01:32:45;;;;;;;2.67;2.47;;;;;;;13.44;100.00;101521.94;5066298;28;20182;-71
2021/08/11 01:35:13;;;;;;;3.50;3.20;;;;;;;13.42;100.00;101533.22;5068941;28;20187;-71
2021/08/11 01:37:40;;;;;;;2.73;2.50;;;;;;;13.50;100.00;101545.44;5070425;28;20171;-72
2021/08/11 01:40:09;;;;;;;3.80;3.47;;;;;;;13.51;100.00;101580.03;5070494;28;20182;-72
2021/08/11 01:42:44;;;;;;;3.80;3.50;;;;;;;13.47;100.00;101584.50;5070293;28;20257;-71
2021/08/11 01:45:39;;;;;;;3.63;3.33;;;;;;;13.46;100.00;101593.84;5070458;28;20170;-71
2021/08/11 01:48:14;;;;;;;3.23;2.90;;;;;;;13.49;100.00;101599.53;5070426;28;20523;-71
2021/08/11 01:50:43;;;;;;;3.13;2.43;;;;;;;13.47;100.00;101592.72;5068917;28;20202;-71
2021/08/11 01:53:12;;;;;;;2.93;2.67;;;;;;;13.45;100.00;101628.69;5070774;28;20205;-72
2021/08/11 01:55:38;;;;;;;3.43;3.13;;;;;;;13.44;100.00;101640.00;5070322;28;20224;-71
2021/08/11 01:58:04;;;;;;;3.03;2.73;;;;;;;13.39;100.00;101652.69;5070378;28;20174;-71
2021/08/11 02:00:30;;;;;;;3.00;2.60;;;;;;;13.40;100.00;101653.50;5070304;28;20265;-72
2021/08/11 02:02:57;;;;;;;2.97;2.77;;;;;;;13.39;100.00;101657.38;5069762;28;20221;-71
2021/08/11 02:05:28;;;;;;;3.20;2.90;;;;;;;13.38;100.00;101677.69;5070280;28;20224;-74
2021/08/11 02:07:54;;;;;;;3.13;2.83;;;;;;;13.41;100.00;101690.81;5070254;28;20159;-71
2021/08/11 02:10:21;;;;;;;3.67;3.07;;;;;;;13.41;100.00;101723.75;5070123;28;20205;-71
2021/08/11 02:12:46;;;;;;;3.83;3.53;;;;;;;13.42;100.00;101732.81;5070040;28;20171;-72
2021/08/11 02:15:12;;;;;;;3.57;3.27;;;;;;;13.42;100.00;101721.84;5070100;28;20634;-71
2021/08/11 02:17:40;;;;;;;5.90;3.93;;;;;;;13.41;100.00;101712.78;5069711;28;20274;-71
2021/08/11 02:20:07;;;;;;;4.57;3.23;;;;;;;13.35;100.00;101722.22;5073240;28;20623;-71
2021/08/11 02:22:33;;;;;;;4.20;3.90;;;;;;;13.34;100.00;101728.84;5073484;28;20665;-72
2021/08/11 02:24:59;;;;;;;4.13;3.73;;;;;;;13.32;100.00;101733.81;5073644;28;20182;-71
2021/08/11 02:27:32;;;;;;;4.50;4.03;;;;;;;13.29;100.00;101740.69;5073577;28;20231;-71
2021/08/11 02:30:13;;;;;;;3.93;3.63;;;;;;;13.31;100.00;101759.63;5073535;28;20213;-72
2021/08/11 02:32:48;;;;;;;4.57;4.17;;;;;;;13.41;100.00;101745.72;5073372;28;20262;-72
2021/08/11 02:35:32;;;;;;;4.90;4.40;;;;;;;13.47;100.00;101772.00;5073566;28;20186;-71
2021/08/11 02:38:15;;;;;;;4.40;4.00;;;;;;;13.46;100.00;101755.84;5073703;28;20170;-72
2021/08/11 02:40:52;;;;;;;10.30;4.57;;;;;;;13.50;100.00;101781.56;5073442;28;20249;-72
2021/08/11 02:43:23;;;;;;;5.50;5.00;;;;;;;13.48;100.00;101803.84;5073209;28;20483;-71
2021/08/11 02:45:59;;;;;;;5.80;5.20;;;;;;;13.46;100.00;101783.28;5073269;28;20666;-72
2021/08/11 02:48:26;;;;;;;6.80;5.07;;;;;;;13.43;100.00;101858.81;5073173;28;20304;-71
2021/08/11 02:50:51;;;;;;;5.40;4.90;;;;;;;13.47;100.00;101801.41;5073187;28;20206;-72
2021/08/11 02:53:20;;;;;;;7.60;5.20;;;;;;;13.50;100.00;101801.59;5072972;28;20185;-71
2021/08/11 02:55:46;;;;;;;4.97;4.57;;;;;;;13.52;100.00;101793.88;5072768;28;20580;-72
2021/08/11 02:58:13;;;;;;;4.73;4.33;;;;;;;13.56;100.00;101822.38;5072580;28;20250;-71
2021/08/11 03:00:38;;;;;;;5.13;4.73;;;;;;;13.57;100.00;101798.47;5072419;28;20568;-72
2021/08/11 03:03:04;;;;;;;6.77;4.93;;;;;;;13.56;100.00;101781.19;5071876;28;20186;-72
2021/08/11 03:05:31;;;;;;;5.70;5.20;;;;;;;13.58;100.00;101791.88;5072440;28;20193;-71
2021/08/11 03:07:57;;;;;;;5.50;5.00;;;;;;;13.61;100.00;101665.78;5072539;28;20170;-71
2021/08/11 03:10:22;;;;;;;6.23;5.63;;;;;;;13.61;100.00;101693.25;5072270;28;20213;-71
2021/08/11 03:12:48;;;;;;;6.50;4.83;;;;;;;13.64;100.00;101678.09;5071997;28;20661;-71
2021/08/11 03:15:15;;;;;;;7.90;5.73;;;;;;;13.65;100.00;101687.97;5072241;28;20210;-72
2021/08/11 03:17:41;;;;;;;6.17;5.53;;;;;;;13.65;100.00;101677.78;5071697;28;20182;-72
2021/08/11 03:20:08;;;;;;;6.70;5.53;;;;;;;13.66;100.00;101737.09;5072095;28;20214;-72
2021/08/11 03:22:33;;;;;;;6.47;5.83;;;;;;;13.66;100.00;101717.03;5071784;28;20223;-71
2021/08/11 03:24:59;;;;;;;5.73;5.13;;;;;;;13.67;100.00;101685.72;5072060;28;20253;-71
2021/08/11 03:27:25;;;;;;;6.57;5.07;;;;;;;13.64;100.00;101684.41;5072567;28;20201;-72
2021/08/11 03:29:50;;;;;;;6.83;6.00;;;;;;;13.59;100.00;101653.44;5071633;28;20206;-72
2021/08/11 03:32:16;;;;;;;6.57;5.90;;;;;;;13.60;100.00;101666.09;5071781;28;20253;-72
2021/08/11 03:34:41;;;;;;;7.47;5.73;;;;;;;13.63;100.00;101660.81;5071945;28;20174;-72
2021/08/11 03:37:06;;;;;;;6.20;5.60;;;;;;;13.69;100.00;101733.72;5071987;28;20207;-71
2021/08/11 03:39:32;;;;;;;6.97;5.57;;;;;;;13.70;100.00;101715.31;5071721;28;20511;-71
2021/08/11 03:41:57;;;;;;;5.83;5.33;;;;;;;13.68;100.00;101761.50;5071459;28;20202;-72
2021/08/11 03:44:22;;;;;;;7.13;6.37;;;;;;;13.69;100.00;101714.50;5071968;28;20178;-71
2021/08/11 03:46:48;;;;;;;7.73;6.30;;;;;;;13.72;100.00;101691.13;5071607;28;20206;-71
2021/08/11 03:49:13;;;;;;;7.77;5.90;;;;;;;13.69;100.00;101683.47;5071535;28;20644;-72
2021/08/11 03:51:38;;;;;;;7.10;6.40;;;;;;;13.74;100.00;101696.31;5071528;28;20186;-71
2021/08/11 03:54:04;;;;;;;6.77;6.17;;;;;;;13.72;100.00;101693.84;5071410;28;20185;-72
2021/08/11 03:56:29;;;;;;;7.73;6.40;;;;;;;13.78;100.00;101702.84;5071860;28;20182;-71
2021/08/11 03:58:54;;;;;;;7.07;6.40;;;;;;;13.81;100.00;101735.19;5071212;28;20178;-72
2021/08/11 04:01:20;;;;;;;6.83;5.93;;;;;;;13.87;100.00;101733.97;5070988;28;20480;-71
2021/08/11 04:03:46;;;;;;;6.90;6.20;;;;;;;13.80;100.00;101744.56;5071279;28;20194;-71
2021/08/11 04:06:11;;;;;;;7.80;6.47;;;;;;;13.74;100.00;101705.34;5071148;28;20288;-71
2021/08/11 04:08:36;;;;;;;4.80;4.40;;;;;;;13.35;100.00;101714.00;5071208;28;20311;-73
2021/08/11 04:11:02;;;;;;;5.07;4.47;;;;;;;12.89;100.00;101687.22;5070958;28;20242;-71
2021/08/11 04:13:27;;;;;;;5.00;4.27;;;;;;;12.81;100.00;101688.69;5070789;28;20174;-72
2021/08/11 04:15:53;;;;;;;4.83;4.43;;;;;;;12.70;100.00;101711.06;5071248;28;20536;-72
2021/08/11 04:18:18;;;;;;;5.20;4.70;;;;;;;12.71;100.00;101712.69;5070699;28;20533;-72
2021/08/11 04:20:44;;;;;;;4.47;4.07;;;;;;;12.79;100.00;101709.28;5070940;28;20182;-72
2021/08/11 04:23:09;;;;;;;5.17;4.20;;;;;;;13.02;100.00;101755.06;5070628;28;20223;-72
2021/08/11 04:25:39;;;;;;;4.50;4.20;;;;;;;13.05;100.00;101778.34;5070805;28;20178;-72
2021/08/11 04:28:09;;;;;;;4.47;4.17;;;;;;;13.00;100.00;101798.41;5070939;28;20166;-72
2021/08/11 04:30:35;;;;;;;4.13;3.73;;;;;;;13.22;100.00;101797.91;5070752;28;20248;-72
2021/08/11 04:33:00;;;;;;;5.13;3.60;;;;;;;13.33;100.00;101810.38;5070601;28;20198;-72
2021/08/11 04:35:25;;;;;;;4.60;4.20;;;;;;;13.47;100.00;101832.41;5070709;28;20185;-71
2021/08/11 04:37:51;;;;;;;4.87;4.37;;;;;;;13.54;100.00;101735.91;5070685;28;20236;-72
2021/08/11 04:40:16;;;;;;;3.67;3.43;;;;;;;13.54;100.00;101686.50;5070637;28;20668;-72
2021/08/11 04:42:42;;;;;;;5.23;3.90;;;;;;;13.55;100.00;101669.72;5069755;28;20177;-72
2021/08/11 04:45:09;;;;;;;4.47;3.80;;;;;;;13.59;100.00;101670.72;5070651;28;20188;-73
2021/08/11 04:47:34;;;;;;;6.90;4.77;;;;;;;13.56;100.00;101671.34;5070559;28;20175;-72
2021/08/11 04:49:59;;;;;;;4.60;4.20;;;;;;;13.64;100.00;101728.34;5070481;28;20198;-72
2021/08/11 04:52:25;;;;;;;4.40;4.00;;;;;;;13.66;100.00;101750.00;5070162;28;20175;-73
2021/08/11 04:54:50;;;;;;;4.43;3.97;;;;;;;13.69;100.00;101763.94;5070914;28;20461;-72
2021/08/11 04:57:15;;;;;;;5.47;4.60;;;;;;;13.64;100.00;101755.00;5070408;28;20599;-73
2021/08/11 04:59:41;;;;;;;5.60;5.10;;;;;;;13.59;100.00;101788.81;5070394;28;20257;-72
2021/08/11 05:02:06;;;;;;;6.03;5.43;;;;;;;13.66;100.00;101794.75;5070188;28;20261;-73
2021/08/11 05:04:31;;;;;;;5.67;5.20;;;;;;;13.59;100.00;101818.22;5070302;28;20186;-72
2021/08/11 05:06:57;;;;;;;6.70;6.03;;;;;;;13.49;100.00;101824.69;5070241;28;20166;-72
2021/08/11 05:09:22;;;;;;;5.77;5.10;;;;;;;13.60;100.00;101852.81;5070671;28;20275;-72
2021/08/11 05:11:48;;;;;;;9.47;6.77;;;;;;;13.79;100.00;101844.56;5069907;28;20174;-73
2021/08/11 05:14:13;;;;;;;6.80;6.17;;;;;;;14.02;100.00;101862.03;5070313;28;20250;-72
2021/08/11 05:16:39;;;;;;;8.43;6.83;;;;;;;14.18;100.00;101861.50;5070243;28;20630;-73
2021/08/11 05:19:04;;;;;;;9.73;8.77;;;;;;;14.28;100.00;101858.56;5069738;28;20174;-73
2021/08/11 05:21:30;;;;;;;7.77;6.97;;;;;;;14.39;100.00;101902.41;5069824;28;20173;-72
2021/08/11 05:23:56;;;;;;;7.47;6.77;;;;;;;14.46;100.00;101900.91;5067703;28;20174;-71
2021/08/11 05:26:22;;;;;;;11.37;7.93;;;;;;;14.54;100.00;101918.66;5069674;28;20634;-72
2021/08/11 05:28:48;;;;;;;9.20;7.43;;;;;;;14.56;100.00;101925.50;5070507;28;20189;-72
2021/08/11 05:31:14;;;;;;;8.80;7.73;;;;;;;14.58;100.00;101909.50;5070401;28;20185;-73
2021/08/11 05:33:40;;;;;;;9.97;8.97;;;;;;;14.65;100.00;101963.31;5070418;28;20178;-72
2021/08/11 05:36:05;;;;;;;9.23;8.00;;;;;;;14.71;100.00;101976.66;5070567;28;20179;-72
2021/08/11 05:38:31;;;;;;;11.27;8.40;;;;;;;14.79;100.00;101980.69;5069196;28;20178;-73
2021/08/11 05:40:59;;;;;;;11.47;8.67;;;;;;;14.81;100.00;101967.44;5070349;28;20190;-71
2021/08/11 05:43:24;;;;;;;10.63;9.63;;;;;;;14.84;100.00;101959.38;5069825;28;20583;-72
2021/08/11 05:45:50;;;;;;;12.33;9.17;;;;;;;14.84;100.00;101953.06;5070309;28;20171;-72
2021/08/11 05:48:15;;;;;;;19.40;10.10;;;;;;;14.83;100.00;101915.66;5070071;28;20171;-72
2021/08/11 05:50:40;;;;;;;11.63;9.60;;;;;;;14.86;100.00;101920.53;5069931;28;20286;-71
2021/08/11 05:53:06;;;;;;;9.07;8.07;;;;;;;14.86;100.00;101970.91;5069952;28;20193;-72
2021/08/11 05:55:31;;;;;;;11.70;10.10;;;;;;;14.86;100.00;101956.31;5073727;28;20583;-72
2021/08/11 05:57:56;;;;;;;11.10;9.90;;;;;;;14.89;100.00;101937.25;5073494;28;20228;-76
2021/08/11 06:00:22;;;;;;;14.70;10.73;;;;;;;14.94;100.00;101826.28;5073679;28;20236;-74
2021/08/11 06:02:47;;;;;;;11.10;9.90;;;;;;;14.98;100.00;101815.47;5071869;28;20183;-74
2021/08/11 06:05:12;;;;;;;15.63;11.53;;;;;;;15.03;100.00;101816.16;5073029;28;20522;-74
2021/08/11 06:07:39;;;;;;;11.57;10.33;;;;;;;15.03;100.00;101809.84;5071057;28;20179;-74
2021/08/11 06:10:05;;;;;;;12.90;10.73;;;;;;;14.97;100.00;101800.06;5073392;28;20210;-75
2021/08/11 06:12:31;;;;;;;10.03;9.03;;;;;;;14.94;100.00;101800.69;5073561;28;20240;-75
2021/08/11 06:14:56;;;;;;;15.40;9.33;;;;;;;14.84;100.00;101799.78;5073658;28;20178;-77
2021/08/11 06:17:21;;;;;;;11.77;10.30;;;;;;;14.81;100.00;101788.59;5073451;28;20441;-72
2021/08/11 06:19:47;;;;;;;11.63;9.37;;;;;;;14.79;100.00;101793.56;5073755;28;20175;-79
2021/08/11 06:22:14;;;;;;;11.27;10.17;;;;;;;14.82;100.00;101782.78;5073594;28;20175;-73
2021/08/11 06:24:39;;;;;;;12.90;9.77;;;;;;;14.91;100.00;101785.63;5073645;28;20178;-73
2021/08/11 06:27:05;;;;;;;12.47;11.10;;;;;;;15.06;100.00;101795.50;5073622;28;20630;-72
2021/08/11 06:29:30;;;;;;;13.13;11.53;;;;;;;15.16;100.00;101789.75;5073980;28;20228;-72
2021/08/11 06:31:56;;;;;;;14.80;12.03;;;;;;;15.26;100.00;101785.94;5073391;28;20181;-72
2021/08/11 06:34:23;;;;;;;13.00;11.13;;;;;;;15.35;100.00;101793.19;5073530;28;20181;-73
2021/08/11 06:36:53;;;;;;;12.33;10.57;;;;;;;15.46;100.00;101790.97;5073422;28;20181;-73
2021/08/11 06:39:18;;;;;;;14.77;11.87;;;;;;;15.54;100.00;101772.91;5072922;28;20205;-74
2021/08/11 06:41:44;;;;;;;14.30;10.77;;;;;;;15.58;100.00;101771.16;5072564;28;20214;-73
2021/08/11 06:44:09;;;;;;;7.27;5.17;;;;;;;15.62;100.00;101775.78;5072827;28;20273;-72
2021/08/11 06:46:34;;;;;;;14.30;12.80;;;;;;;15.68;100.00;101776.44;5071081;28;20829;-72
2021/08/11 06:49:00;;;;;;;13.63;12.27;;;;;;;15.72;100.00;101782.97;5071778;28;20809;-72
2021/08/11 06:51:25;;;;;;;17.80;11.73;;;;;;;15.76;100.00;101778.44;5072620;28;20700;-73
2021/08/11 06:53:51;;;;;;;16.67;12.40;;;;;;;15.86;100.00;101778.19;5072799;28;20224;-72
2021/08/11 06:56:16;;;;;;;12.20;10.80;;;;;;;15.86;100.00;101774.63;5072697;28;20595;-72
2021/08/11 06:58:41;;;;;;;14.67;12.23;;;;;;;15.85;100.00;101770.25;5072794;28;20186;-72
2021/08/11 07:01:07;;;;;;;11.70;10.33;;;;;;;15.82;100.00;101766.19;5073095;28;20175;-72
2021/08/11 07:03:32;;;;;;;13.37;11.13;;;;;;;15.83;100.00;101767.00;5072806;28;20615;-72
2021/08/11 07:05:58;;;;;;;11.20;10.03;;;;;;;15.80;100.00;101757.41;5072388;28;20210;-72
2021/08/11 07:08:23;;;;;;;15.23;12.07;;;;;;;15.83;100.00;101759.53;5072976;28;20171;-72
2021/08/11 07:10:49;;;;;;;21.60;13.47;;;;;;;15.91;100.00;101768.97;5072800;28;20206;-72
2021/08/11 07:13:19;;;;;;;12.27;10.57;;;;;;;15.94;100.00;101771.13;5072675;28;20171;-72
2021/08/11 07:15:45;;;;;;;17.93;11.40;;;;;;;15.94;100.00;101768.38;5072813;28;20173;-72
2021/08/11 07:18:15;;;;;;;8.67;7.67;;;;;;;15.99;100.00;101755.25;5072478;28;20174;-72
2021/08/11 07:20:40;;;;;;;13.03;11.70;;;;;;;15.96;100.00;101769.66;5072868;28;20379;-72
2021/08/11 07:23:06;;;;;;;11.20;10.03;;;;;;;15.93;100.00;101758.47;5073744;28;20179;-72
2021/08/11 07:25:31;;;;;;;12.47;11.17;;;;;;;15.92;100.00;101743.06;5073911;28;20479;-72
2021/08/11 07:27:57;;;;;;;8.97;7.33;;;;;;;15.93;100.00;101717.94;5072228;28;20174;-72
2021/08/11 07:30:22;;;;;;;14.33;12.43;;;;;;;15.96;100.00;101714.53;5072304;28;20213;-72
2021/08/11 07:32:47;;;;;;;6.17;4.60;;;;;;;16.07;100.00;101709.56;5072240;28;20170;-72
2021/08/11 07:35:13;;;;;;;10.17;8.43;;;;;;;16.13;100.00;101724.03;5072077;28;20606;-72
2021/08/11 07:37:51;;;;;;;15.83;9.97;;;;;;;16.28;100.00;101742.91;5071416;28;20284;-72
2021/08/11 07:40:18;;;;;;;11.60;10.50;;;;;;;16.38;100.00;101717.81;5071932;28;20185;-72
2021/08/11 07:42:44;;;;;;;14.53;13.03;;;;;;;16.48;100.00;101723.00;5071965;28;20626;-72
2021/08/11 07:45:11;;;;;;;14.00;12.63;;;;;;;16.46;100.00;101728.03;5072100;28;20632;-72
2021/08/11 07:47:37;;;;;;;12.30;10.23;;;;;;;16.51;100.00;101713.31;5072052;28;20178;-72
2021/08/11 07:50:05;;;;;;;9.70;7.80;;;;;;;16.65;100.00;101723.09;5071910;28;20210;-72
2021/08/11 07:52:30;;;;;;;29.50;13.43;;;;;;;16.86;100.00;101734.34;5071596;28;20175;-72
2021/08/11 07:54:55;;;;;;;15.93;12.90;;;;;;;17.01;100.00;101754.34;5071435;28;20179;-72
2021/08/11 07:57:21;;;;;;;17.90;15.00;;;;;;;17.03;100.00;101746.56;5069803;28;20181;-72
2021/08/11 07:59:46;;;;;;;12.87;11.63;;;;;;;17.13;100.00;101741.53;5069924;28;20193;-72
2021/08/11 08:02:13;;;;;;;10.27;9.30;;;;;;;17.13;100.00;101733.25;5071156;28;20262;-72
2021/08/11 08:04:41;;;;;;;14.57;12.70;;;;;;;17.21;100.00;101729.69;5071260;28;20190;-72
2021/08/11 08:07:06;;;;;;;9.93;8.97;;;;;;;17.28;100.00;101731.13;5071672;28;20262;-73
2021/08/11 08:09:32;;;;;;;15.63;10.73;;;;;;;17.31;100.00;101728.53;5071580;28;20242;-72
2021/08/11 08:11:58;;;;;;;9.33;8.53;;;;;;;17.52;100.00;101748.84;5071394;28;20234;-72
2021/08/11 08:14:23;;;;;;;12.60;9.43;;;;;;;17.63;100.00;101746.53;5071940;28;20206;-72
2021/08/11 08:16:49;;;;;;;9.57;7.53;;;;;;;17.49;100.00;101730.13;5070743;28;20575;-72
2021/08/11 08:19:14;;;;;;;17.10;11.70;;;;;;;17.49;100.00;101730.13;5071388;28;20249;-72
2021/08/11 08:21:39;;;;;;;13.03;11.73;;;;;;;17.51;100.00;101722.34;5071266;28;20179;-72
2021/08/11 08:24:05;;;;;;;9.20;8.27;;;;;;;17.51;100.00;101714.06;5071218;28;20182;-72
2021/08/11 08:26:30;;;;;;;9.53;8.63;;;;;;;17.44;100.00;101705.44;5071413;28;20526;-72
2021/08/11 08:28:56;;;;;;;12.70;11.37;;;;;;;17.42;100.00;101701.38;5071176;28;20243;-72
2021/08/11 08:31:21;;;;;;;14.13;12.63;;;;;;;17.46;100.00;101716.97;5071036;28;20182;-72
2021/08/11 08:33:46;;;;;;;11.50;10.50;;;;;;;17.61;100.00;101706.56;5071570;28;20199;-72
2021/08/11 08:36:12;;;;;;;9.07;8.20;;;;;;;17.57;100.00;101700.06;5071169;28;20243;-72
2021/08/11 08:38:37;;;;;;;9.63;7.47;;;;;;;17.49;100.00;101685.91;5071448;28;20170;-73
2021/08/11 08:41:02;;;;;;;11.93;10.83;;;;;;;17.40;100.00;101682.38;5071088;28;20178;-72
2021/08/11 08:43:28;;;;;;;11.13;10.07;;;;;;;17.57;100.00;101695.34;5070978;28;20183;-73
2021/08/11 08:45:54;;;;;;;10.40;9.50;;;;;;;17.70;100.00;101721.22;5071406;28;20210;-73
2021/08/11 08:48:20;;;;;;;9.77;6.90;;;;;;;17.78;100.00;101720.38;5065224;28;20175;-72
2021/08/11 08:50:48;;;;;;;13.10;11.67;;;;;;;17.78;100.00;101726.72;5068012;28;20271;-72
2021/08/11 08:53:21;;;;;;;13.93;11.30;;;;;;;17.94;100.00;101727.03;5070246;28;20182;-73
2021/08/11 08:55:46;;;;;;;14.17;12.47;;;;;;;17.99;100.00;101715.78;5070537;28;20175;-72
2021/08/11 08:58:12;;;;;;;13.93;10.53;;;;;;;18.10;100.00;101711.50;5070498;28;20594;-73
2021/08/11 09:00:37;;;;;;;13.33;12.03;;;;;;;18.19;100.00;101725.28;5070337;28;20213;-73
2021/08/11 09:03:04;;;;;;;10.70;9.73;;;;;;;18.15;100.00;101713.28;5070102;28;20270;-72
2021/08/11 09:05:29;;;;;;;11.37;10.37;;;;;;;18.11;100.00;101679.13;5070393;28;20181;-73
2021/08/11 09:07:55;;;;;;;13.53;12.13;;;;;;;18.13;100.00;101688.72;5070317;28;20175;-72
2021/08/11 09:10:27;;;;;;;11.00;9.93;;;;;;;18.17;100.00;101680.56;5070236;28;20733;-73
2021/08/11 09:12:54;;;;;;;12.33;9.43;;;;;;;18.30;100.00;101676.75;5069882;28;20219;-73
2021/08/11 09:15:38;;;;;;;15.73;11.13;;;;;;;18.41;100.00;101679.94;5070278;28;20618;-73
2021/08/11 09:18:16;;;;;;;13.97;12.53;;;;;;;18.50;100.00;101677.94;5070043;28;20257;-72
2021/08/11 09:20:44;;;;;;;12.77;11.53;;;;;;;18.60;100.00;101673.97;5070236;28;20185;-73
2021/08/11 09:23:10;;;;;;;12.83;11.67;;;;;;;18.65;100.00;101688.44;5070100;28;20660;-73
2021/08/11 09:25:55;;;;;;;10.80;9.80;;;;;;;18.66;100.00;101678.19;5070138;28;20656;-72
2021/08/11 09:28:20;;;;;;;12.07;10.97;;;;;;;18.65;100.00;101679.31;5072544;28;20182;-72
2021/08/11 09:30:46;;;;;;;14.00;12.60;;;;;;;18.87;100.00;101678.22;5074524;28;20210;-72
2021/08/11 09:33:11;;;;;;;12.70;11.40;;;;;;;19.06;100.00;101674.97;5073977;28;20210;-72
2021/08/11 09:35:38;;;;;;;11.90;10.10;;;;;;;19.06;98.87;101673.00;5072936;28;20213;-72
2021/08/11 09:38:14;;;;;;;13.47;10.70;;;;;;;19.03;96.52;101671.72;5072732;28;20219;-72
2021/08/11 09:40:42;;;;;;;10.37;9.37;;;;;;;19.14;99.02;101669.34;5074057;28;20589;-72
2021/08/11 09:43:10;;;;;;;10.37;9.37;;;;;;;19.18;95.56;101672.25;5073829;28;20666;-72
2021/08/11 09:45:52;;;;;;;9.50;8.57;;;;;;;19.23;94.24;101669.25;5074052;28;20178;-72
2021/08/11 09:48:24;;;;;;;5.27;4.57;;;;;;;19.25;95.58;101664.22;5073939;28;20175;-72
2021/08/11 09:51:02;;;;;;;11.33;10.23;;;;;;;19.23;97.73;101669.25;5073861;28;20202;-72
2021/08/11 09:53:30;;;;;;;10.53;9.40;;;;;;;19.20;93.22;101622.84;5073705;28;20171;-72
2021/08/11 09:56:04;;;;;;;10.90;9.77;;;;;;;19.20;93.73;101614.53;5073864;28;20228;-72
2021/08/11 09:58:40;;;;;;;11.43;10.30;;;;;;;19.11;95.31;101611.06;5073869;28;20178;-72
2021/08/11 10:01:23;;;;;;;10.83;9.80;;;;;;;19.07;96.00;101610.91;5073631;28;20166;-72
2021/08/11 10:04:06;;;;;;;10.33;9.23;;;;;;;19.08;93.54;101673.47;5073700;28;20218;-72
2021/08/11 10:06:34;;;;;;;11.30;9.67;;;;;;;19.25;95.00;101648.41;5073623;28;20167;-72
2021/08/11 10:09:11;;;;;;;12.97;9.40;;;;;;;19.46;93.03;101633.66;5073536;28;20170;-72
2021/08/11 10:11:39;;;;;;;6.07;5.43;;;;;;;19.56;92.15;101647.94;5073269;28;20166;-72
2021/08/11 10:14:09;;;;;;;8.97;8.13;;;;;;;19.60;91.95;101634.19;5073494;28;20178;-72
2021/08/11 10:16:35;;;;;;;9.93;9.07;;;;;;;19.57;89.40;101629.34;5073461;28;20650;-72
2021/08/11 10:19:05;;;;;;;8.23;7.50;;;;;;;19.64;86.78;101626.81;5073209;28;20472;-72
2021/08/11 10:21:49;;;;;;;9.17;6.77;;;;;;;19.54;84.36;101616.16;5073389;28;20193;-72
2021/08/11 10:24:15;;;;;;;9.33;8.40;;;;;;;19.58;85.41;101615.13;5073333;28;20174;-72
2021/08/11 10:26:42;;;;;;;7.43;6.83;;;;;;;19.71;86.11;101623.47;5073311;28;20177;-72
2021/08/11 10:29:08;;;;;;;6.93;6.33;;;;;;;19.81;83.39;101618.28;5073088;28;20171;-72
2021/08/11 10:31:34;;;;;;;6.43;5.80;;;;;;;19.86;79.95;101622.81;5072841;28;20177;-72
2021/08/11 10:34:02;;;;;;;4.63;4.00;;;;;;;20.02;79.69;101634.81;5073117;28;20181;-73
2021/08/11 10:36:29;;;;;;;6.07;4.87;;;;;;;20.16;76.62;101631.72;5073041;28;20661;-72
2021/08/11 10:38:57;;;;;;;7.43;5.47;;;;;;;20.24;78.51;101624.41;5072195;28;20171;-72
2021/08/11 10:41:28;;;;;;;5.53;4.77;;;;;;;20.30;79.59;101628.56;5071391;28;20271;-72
2021/08/11 10:43:54;;;;;;;4.63;4.03;;;;;;;20.30;73.87;101628.56;5072907;28;20166;-72
2021/08/11 10:46:20;;;;;;;4.90;4.40;;;;;;;20.27;72.77;101615.41;5073349;28;20201;-72
2021/08/11 10:49:02;;;;;;;4.87;4.37;;;;;;;20.27;76.46;101609.84;5072799;28;20174;-72
2021/08/11 10:51:49;;;;;;;5.40;4.23;;;;;;;20.19;73.24;101609.63;5072868;28;20179;-72
2021/08/11 10:54:14;;;;;;;5.30;4.77;;;;;;;20.30;75.71;101611.94;5072802;28;20542;-72
2021/08/11 10:56:43;;;;;;;5.07;4.50;;;;;;;20.38;77.22;101608.19;5072636;28;20178;-72
2021/08/11 10:59:24;;;;;;;5.40;4.90;;;;;;;20.49;76.87;101623.25;5072726;28;20174;-72
2021/08/11 11:01:54;;;;;;;6.30;5.70;;;;;;;20.54;76.08;101586.91;5072323;28;20545;-72
2021/08/11 11:04:46;;;;;;;3.80;3.40;;;;;;;20.59;75.47;101719.16;5072456;28;20549;-72
2021/08/11 11:07:20;;;;;;;4.80;4.43;;;;;;;20.56;75.02;101579.06;5072693;28;20257;-72
2021/08/11 11:09:47;;;;;;;6.03;5.00;;;;;;;20.70;73.53;101562.81;5072477;28;20678;-72
2021/08/11 11:12:15;;;;;;;5.90;4.80;;;;;;;20.93;75.30;101562.25;5072052;28;20170;-72
2021/08/11 11:15:00;;;;;;;3.73;3.43;;;;;;;20.97;71.36;101563.13;5072365;28;20169;-72
2021/08/11 11:17:35;;;;;;;4.87;4.27;;;;;;;20.95;70.59;101554.34;5072215;28;20170;-72